createdAt,value
2018-05-04T00:00:24.905Z,0
2018-05-04T00:01:25.097Z,0
2018-05-04T00:02:25.641Z,0
2018-05-04T00:03:25.180Z,0
2018-05-04T00:04:25.032Z,0
2018-05-04T00:05:25.378Z,0
2018-05-04T00:06:25.421Z,0
2018-05-04T00:07:25.832Z,0
2018-05-04T00:08:25.958Z,0
2018-05-04T00:09:26.446Z,0
2018-05-04T00:10:26.668Z,0
2018-05-04T00:11:26.672Z,0
2018-05-04T00:12:26.454Z,0
2018-05-04T00:13:27.150Z,0
2018-05-04T00:14:26.944Z,0
2018-05-04T00:15:27.149Z,0
2018-05-04T00:16:27.603Z,0
2018-05-04T00:18:08.786Z,0
2018-05-04T00:18:50.573Z,0
2018-05-04T00:19:56.496Z,0
2018-05-04T01:01:11.747Z,0
2018-05-04T01:02:11.547Z,0
2018-05-04T01:03:11.935Z,0
2018-05-04T01:04:11.775Z,0
2018-05-04T01:05:12.332Z,0
2018-05-04T01:06:12.023Z,0
2018-05-04T01:07:12.423Z,0
2018-05-04T01:08:12.816Z,0
2018-05-04T01:09:12.860Z,0
2018-05-04T01:10:12.950Z,0
2018-05-04T01:11:12.654Z,0
2018-05-04T01:12:13.071Z,0
2018-05-04T01:13:13.561Z,0
2018-05-04T01:14:12.984Z,0
2018-05-04T01:15:13.385Z,0
2018-05-04T01:16:13.800Z,0
2018-05-04T01:17:14.172Z,0
2018-05-04T01:18:14.620Z,0
2018-05-04T01:19:14.731Z,0
2018-05-04T01:20:15.459Z,0
2018-05-04T01:21:15.871Z,0
2018-05-04T01:22:15.899Z,0
2018-05-04T01:23:15.644Z,0
2018-05-04T01:24:16.061Z,0
2018-05-04T01:25:16.106Z,0
2018-05-04T01:26:15.967Z,0
2018-05-04T01:27:16.606Z,0
2018-05-04T01:28:16.469Z,0
2018-05-04T01:29:16.387Z,0
2018-05-04T01:30:17.052Z,0
2018-05-04T01:31:16.808Z,0
2018-05-04T01:32:17.209Z,0
2018-05-04T01:33:17.333Z,0
2018-05-04T01:34:17.199Z,0
2018-05-04T01:35:18.019Z,0
2018-05-04T01:36:17.776Z,0
2018-05-04T01:37:18.196Z,0
2018-05-04T01:38:18.602Z,0
2018-05-04T01:39:18.606Z,0
2018-05-04T01:40:19.035Z,0
2018-05-04T01:41:19.158Z,0
2018-05-04T01:42:19.302Z,0
2018-05-04T01:43:19.691Z,0
2018-05-04T01:44:19.914Z,0
2018-05-04T01:45:20.088Z,0
2018-05-04T01:46:19.841Z,0
2018-05-04T01:47:20.536Z,0
2018-05-04T01:48:20.407Z,0
2018-05-04T01:49:20.560Z,0
2018-05-04T01:50:21.227Z,0
2018-05-04T01:51:21.370Z,0
2018-05-04T01:52:21.872Z,0
2018-05-04T01:53:21.774Z,0
2018-05-04T01:54:21.578Z,0
2018-05-04T01:55:22.253Z,0
2018-05-04T01:56:22.289Z,0
2018-05-04T01:57:22.286Z,0
2018-05-04T01:58:22.088Z,0
2018-05-04T01:59:22.497Z,0
2018-05-04T03:00:15.711Z,0
2018-05-04T03:01:15.085Z,0
2018-05-04T03:02:15.524Z,4
2018-05-04T03:03:15.530Z,4
2018-05-04T03:04:15.687Z,0
2018-05-04T03:05:15.581Z,0
2018-05-04T03:06:16.215Z,4
2018-05-04T03:07:16.395Z,0
2018-05-04T03:08:16.819Z,4
2018-05-04T03:09:17.491Z,4
2018-05-04T03:10:17.375Z,4
2018-05-04T03:11:17.676Z,4
2018-05-04T03:12:17.574Z,4
2018-05-04T03:13:18.352Z,8
2018-05-04T03:14:18.123Z,12
2018-05-04T03:15:18.176Z,12
2018-05-04T03:16:18.051Z,12
2018-05-04T03:17:18.177Z,12
2018-05-04T03:18:18.697Z,16
2018-05-04T03:19:19.077Z,16
2018-05-04T03:20:19.759Z,16
2018-05-04T03:21:19.855Z,24
2018-05-04T03:22:20.167Z,24
2018-05-04T03:23:20.192Z,28
2018-05-04T03:24:19.956Z,32
2018-05-04T03:25:20.650Z,32
2018-05-04T03:26:20.487Z,36
2018-05-04T03:27:20.854Z,40
2018-05-04T03:28:20.967Z,44
2018-05-04T03:29:21.610Z,52
2018-05-04T03:30:21.653Z,52
2018-05-04T03:31:21.252Z,56
2018-05-04T03:32:21.715Z,64
2018-05-04T03:33:22.136Z,72
2018-05-04T03:34:22.459Z,76
2018-05-04T03:35:23.020Z,80
2018-05-04T03:36:22.951Z,88
2018-05-04T03:37:22.753Z,92
2018-05-04T03:38:23.068Z,100
2018-05-04T03:39:22.774Z,112
2018-05-04T03:40:23.228Z,116
2018-05-04T03:41:23.238Z,124
2018-05-04T03:42:23.000Z,132
2018-05-04T03:43:23.133Z,144
2018-05-04T03:44:23.552Z,152
2018-05-04T03:45:23.697Z,160
2018-05-04T03:46:23.173Z,172
2018-05-04T03:47:23.976Z,180
2018-05-04T03:48:24.027Z,192
2018-05-04T03:49:23.988Z,204
2018-05-04T03:50:23.674Z,212
2018-05-04T03:51:24.059Z,224
2018-05-04T03:52:24.435Z,236
2018-05-04T03:53:24.478Z,248
2018-05-04T03:54:24.352Z,256
2018-05-04T03:55:24.650Z,268
2018-05-04T03:56:24.705Z,284
2018-05-04T03:57:24.319Z,292
2018-05-04T03:58:25.235Z,304
2018-05-04T03:59:25.166Z,316
2018-05-04T04:00:25.303Z,332
2018-05-04T04:01:25.280Z,344
2018-05-04T04:02:25.703Z,352
2018-05-04T04:03:26.203Z,372
2018-05-04T04:04:25.996Z,384
2018-05-04T04:05:26.480Z,396
2018-05-04T04:06:26.008Z,404
2018-05-04T04:07:26.527Z,420
2018-05-04T04:08:26.573Z,436
2018-05-04T04:09:26.555Z,444
2018-05-04T04:10:26.595Z,460
2018-05-04T04:11:27.040Z,472
2018-05-04T04:12:26.706Z,484
2018-05-04T04:13:27.528Z,500
2018-05-04T04:14:27.809Z,512
2018-05-04T04:15:27.830Z,528
2018-05-04T04:16:27.611Z,540
2018-05-04T04:17:29.720Z,552
2018-05-04T04:18:28.297Z,564
2018-05-04T04:19:28.342Z,576
2018-05-04T04:20:28.631Z,592
2018-05-04T04:21:28.437Z,604
2018-05-04T04:22:28.678Z,616
2018-05-04T04:23:29.276Z,628
2018-05-04T04:24:28.714Z,644
2018-05-04T04:25:29.099Z,656
2018-05-04T04:26:29.595Z,668
2018-05-04T04:27:29.596Z,680
2018-05-04T04:28:29.625Z,692
2018-05-04T04:29:29.394Z,704
2018-05-04T04:30:29.864Z,720
2018-05-04T04:31:30.313Z,732
2018-05-04T04:32:30.604Z,744
2018-05-04T04:33:31.031Z,756
2018-05-04T04:34:31.190Z,768
2018-05-04T04:35:31.310Z,780
2018-05-04T04:36:31.971Z,792
2018-05-04T04:37:32.455Z,808
2018-05-04T04:38:32.182Z,816
2018-05-04T04:39:32.361Z,832
2018-05-04T04:40:32.762Z,844
2018-05-04T04:41:34.137Z,860
2018-05-04T04:42:34.930Z,872
2018-05-04T04:43:33.407Z,884
2018-05-04T04:44:35.724Z,908
2018-05-04T04:45:35.735Z,920
2018-05-04T04:46:33.936Z,924
2018-05-04T04:47:34.727Z,936
2018-05-04T04:48:34.758Z,960
2018-05-04T04:49:34.771Z,988
2018-05-04T04:50:34.573Z,1116
2018-05-04T04:51:34.317Z,1256
2018-05-04T04:52:34.774Z,1376
2018-05-04T04:53:35.446Z,1368
2018-05-04T04:54:35.232Z,1152
2018-05-04T04:55:35.395Z,1084
2018-05-04T04:56:35.772Z,1104
2018-05-04T04:57:36.161Z,1124
2018-05-04T04:58:37.155Z,1108
2018-05-04T04:59:36.271Z,1108
2018-05-04T05:00:36.330Z,1124
2018-05-04T05:01:36.116Z,1144
2018-05-04T05:02:36.138Z,1160
2018-05-04T05:03:36.618Z,1188
2018-05-04T05:04:36.365Z,1216
2018-05-04T05:05:36.851Z,1244
2018-05-04T05:06:36.606Z,1368
2018-05-04T05:07:36.918Z,1416
2018-05-04T05:08:36.434Z,1348
2018-05-04T05:09:36.956Z,1356
2018-05-04T05:10:37.174Z,1480
2018-05-04T05:11:37.475Z,1580
2018-05-04T05:12:37.327Z,1512
2018-05-04T05:13:37.843Z,1516
2018-05-04T05:14:38.523Z,1616
2018-05-04T05:15:37.643Z,1716
2018-05-04T05:16:38.281Z,1780
2018-05-04T05:17:37.780Z,1840
2018-05-04T05:18:37.544Z,1852
2018-05-04T05:19:38.284Z,2264
2018-05-04T05:20:37.803Z,2248
2018-05-04T05:21:38.050Z,2592
2018-05-04T05:22:38.333Z,2808
2018-05-04T05:23:38.717Z,3732
2018-05-04T05:24:38.610Z,5060
2018-05-04T05:25:38.883Z,6004
2018-05-04T05:26:38.916Z,6552
2018-05-04T05:27:38.684Z,6700
2018-05-04T05:28:38.976Z,6992
2018-05-04T05:29:39.343Z,7688
2018-05-04T05:30:39.022Z,8244
2018-05-04T05:31:39.240Z,8816
2018-05-04T05:32:39.491Z,8652
2018-05-04T05:33:39.656Z,8792
2018-05-04T05:34:39.357Z,8740
2018-05-04T05:35:39.284Z,8688
2018-05-04T05:36:39.461Z,8664
2018-05-04T05:37:40.154Z,8708
2018-05-04T05:38:40.457Z,7760
2018-05-04T05:39:40.178Z,6960
2018-05-04T05:40:40.676Z,5708
2018-05-04T05:41:40.222Z,4296
2018-05-04T05:42:40.575Z,4084
2018-05-04T05:43:40.604Z,4596
2018-05-04T05:44:41.100Z,5868
2018-05-04T05:45:40.837Z,5972
2018-05-04T05:46:40.539Z,6200
2018-05-04T05:47:40.976Z,5996
2018-05-04T05:48:41.520Z,4636
2018-05-04T05:49:41.941Z,3700
2018-05-04T05:50:41.077Z,3368
2018-05-04T05:51:41.422Z,2976
2018-05-04T05:52:42.269Z,2844
2018-05-04T05:53:42.090Z,2724
2018-05-04T05:54:42.639Z,2736
2018-05-04T05:55:42.054Z,2904
2018-05-04T05:56:42.310Z,3184
2018-05-04T05:57:42.337Z,3908
2018-05-04T05:58:43.159Z,4284
2018-05-04T05:59:42.713Z,3796
2018-05-04T06:00:42.959Z,4568
2018-05-04T06:01:43.462Z,4556
2018-05-04T06:02:43.381Z,4192
2018-05-04T06:03:42.669Z,5956
2018-05-04T06:04:43.622Z,5576
2018-05-04T06:05:43.340Z,5144
2018-05-04T06:06:43.327Z,5068
2018-05-04T06:07:43.375Z,6052
2018-05-04T06:08:43.257Z,7500
2018-05-04T06:09:43.982Z,13396
2018-05-04T06:10:43.479Z,21376
2018-05-04T06:11:44.191Z,17728
2018-05-04T06:12:44.892Z,18528
2018-05-04T06:13:44.457Z,21184
2018-05-04T06:14:44.938Z,21856
2018-05-04T06:15:45.075Z,20064
2018-05-04T06:16:45.805Z,21120
2018-05-04T06:17:45.840Z,29120
2018-05-04T06:18:45.366Z,33440
2018-05-04T06:19:45.405Z,33344
2018-05-04T06:20:45.581Z,33344
2018-05-04T06:21:46.372Z,33728
2018-05-04T06:22:45.643Z,33760
2018-05-04T06:23:45.553Z,34144
2018-05-04T06:24:46.355Z,34400
2018-05-04T06:25:46.368Z,34144
2018-05-04T06:26:46.535Z,33536
2018-05-04T06:27:46.993Z,29728
2018-05-04T06:28:46.441Z,28064
2018-05-04T06:29:46.717Z,30304
2018-05-04T06:30:46.570Z,32768
2018-05-04T06:31:46.707Z,33408
2018-05-04T06:32:46.992Z,34368
2018-05-04T06:33:47.583Z,34720
2018-05-04T06:34:47.471Z,35584
2018-05-04T06:35:47.411Z,36384
2018-05-04T06:36:47.658Z,35968
2018-05-04T06:37:47.050Z,34272
2018-05-04T06:38:47.207Z,34304
2018-05-04T06:39:48.093Z,37088
2018-05-04T06:40:47.602Z,37216
2018-05-04T06:41:47.862Z,35008
2018-05-04T06:42:47.336Z,36224
2018-05-04T06:43:47.556Z,36864
2018-05-04T06:44:47.840Z,37120
2018-05-04T06:45:48.153Z,38016
2018-05-04T06:46:48.240Z,37792
2018-05-04T06:47:48.831Z,37984
2018-05-04T06:48:49.417Z,38304
2018-05-04T06:49:49.360Z,37472
2018-05-04T06:50:49.789Z,38208
2018-05-04T06:51:49.562Z,40640
2018-05-04T06:52:49.975Z,35648
2018-05-04T06:53:49.764Z,30368
2018-05-04T06:54:50.233Z,25696
2018-05-04T06:55:50.386Z,17376
2018-05-04T06:56:50.710Z,11084
2018-05-04T06:57:50.838Z,9488
2018-05-04T06:58:51.499Z,9180
2018-05-04T06:59:51.379Z,8956
2018-05-04T07:00:51.412Z,8788
2018-05-04T07:01:51.258Z,8660
2018-05-04T07:02:51.400Z,8492
2018-05-04T07:03:52.357Z,8400
2018-05-04T07:04:53.080Z,8356
2018-05-04T07:05:52.917Z,8704
2018-05-04T07:06:52.928Z,8608
2018-05-04T07:07:53.119Z,8656
2018-05-04T07:08:52.675Z,8564
2018-05-04T07:09:52.970Z,8768
2018-05-04T07:10:52.542Z,7752
2018-05-04T07:11:52.311Z,9480
2018-05-04T07:12:51.632Z,8488
2018-05-04T07:13:52.311Z,7720
2018-05-04T07:14:51.807Z,8196
2018-05-04T07:15:52.227Z,7540
2018-05-04T07:16:52.174Z,7464
2018-05-04T07:17:52.856Z,7824
2018-05-04T07:18:52.814Z,7736
2018-05-04T07:19:54.031Z,7468
2018-05-04T07:20:53.358Z,7720
2018-05-04T07:21:53.192Z,7620
2018-05-04T07:22:53.612Z,7316
2018-05-04T07:23:53.425Z,7996
2018-05-04T07:24:52.977Z,7100
2018-05-04T07:25:53.222Z,7168
2018-05-04T07:26:53.822Z,7028
2018-05-04T07:27:53.834Z,7492
2018-05-04T07:28:54.482Z,7160
2018-05-04T07:29:53.598Z,8036
2018-05-04T07:30:53.342Z,7580
2018-05-04T07:31:54.136Z,6944
2018-05-04T07:32:54.225Z,8136
2018-05-04T07:33:54.179Z,8136
2018-05-04T07:34:53.678Z,7564
2018-05-04T07:35:54.275Z,7056
2018-05-04T07:36:54.390Z,7248
2018-05-04T07:37:54.548Z,7124
2018-05-04T07:38:54.863Z,7944
2018-05-04T07:39:54.921Z,7076
2018-05-04T07:40:54.396Z,6980
2018-05-04T07:41:55.075Z,8076
2018-05-04T07:42:55.120Z,6980
2018-05-04T07:43:55.212Z,7744
2018-05-04T07:44:55.212Z,7688
2018-05-04T07:45:55.357Z,7724
2018-05-04T07:46:55.389Z,6992
2018-05-04T07:47:55.149Z,7692
2018-05-04T07:48:55.633Z,7008
2018-05-04T07:49:55.251Z,6992
2018-05-04T07:50:55.670Z,7028
2018-05-04T07:51:55.442Z,7628
2018-05-04T07:52:56.101Z,7376
2018-05-04T07:53:56.069Z,6636
2018-05-04T07:54:56.239Z,7152
2018-05-04T07:55:56.167Z,7040
2018-05-04T07:56:56.578Z,7476
2018-05-04T07:57:56.544Z,6940
2018-05-04T07:58:56.288Z,6712
2018-05-04T07:59:56.700Z,6672
2018-05-04T08:00:56.807Z,6720
2018-05-04T08:01:57.446Z,7584
2018-05-04T08:02:57.628Z,7752
2018-05-04T08:03:57.076Z,7872
2018-05-04T08:04:57.211Z,7008
2018-05-04T08:05:57.954Z,7136
2018-05-04T08:06:58.759Z,7300
2018-05-04T08:07:57.713Z,8108
2018-05-04T08:08:57.643Z,7888
2018-05-04T08:09:58.489Z,7492
2018-05-04T08:10:59.117Z,8732
2018-05-04T08:11:59.400Z,7984
2018-05-04T08:12:58.651Z,8168
2018-05-04T08:13:58.807Z,9268
2018-05-04T08:14:59.490Z,8568
2018-05-04T08:15:59.259Z,8840
2018-05-04T08:16:59.477Z,9892
2018-05-04T08:17:59.985Z,10444
2018-05-04T08:18:59.834Z,13216
2018-05-04T08:20:00.729Z,17184
2018-05-04T08:21:00.551Z,18272
2018-05-04T08:22:00.715Z,19936
2018-05-04T08:23:00.657Z,21056
2018-05-04T08:24:00.659Z,21568
2018-05-04T08:25:00.177Z,22144
2018-05-04T08:26:01.221Z,24096
2018-05-04T08:27:00.956Z,26880
2018-05-04T08:28:01.383Z,28800
2018-05-04T08:29:01.309Z,30784
2018-05-04T08:30:01.849Z,31616
2018-05-04T08:31:02.037Z,36224
2018-05-04T08:32:02.490Z,39360
2018-05-04T08:33:02.130Z,37408
2018-05-04T08:34:02.134Z,37184
2018-05-04T08:35:02.758Z,38208
2018-05-04T08:36:02.984Z,41728
2018-05-04T08:37:03.181Z,43360
2018-05-04T08:38:03.672Z,44832
2018-05-04T08:39:03.721Z,41568
2018-05-04T08:40:03.618Z,38912
2018-05-04T08:41:02.962Z,41344
2018-05-04T08:42:03.310Z,40032
2018-05-04T08:43:04.253Z,38944
2018-05-04T08:44:03.899Z,40256
2018-05-04T08:45:04.151Z,38016
2018-05-04T08:46:04.097Z,37888
2018-05-04T08:47:04.348Z,42944
2018-05-04T08:48:05.113Z,44832
2018-05-04T08:49:05.454Z,44288
2018-05-04T08:50:04.983Z,43168
2018-05-04T08:51:05.411Z,42368
2018-05-04T08:52:05.029Z,40960
2018-05-04T08:53:04.451Z,42112
2018-05-04T08:54:05.363Z,43264
2018-05-04T08:55:05.314Z,44480
2018-05-04T08:56:05.176Z,44608
2018-05-04T08:57:05.726Z,45792
2018-05-04T08:58:05.658Z,45504
2018-05-04T08:59:05.454Z,46848
2018-05-04T09:00:19.152Z,50848
2018-05-04T09:01:05.944Z,52800
2018-05-04T09:02:06.490Z,51168
2018-05-04T09:03:06.678Z,47296
2018-05-04T09:04:06.507Z,44000
2018-05-04T09:05:06.100Z,44736
2018-05-04T09:06:06.425Z,48320
2018-05-04T09:07:06.950Z,53216
2018-05-04T09:08:06.746Z,54080
2018-05-04T09:09:07.258Z,56352
2018-05-04T09:10:07.371Z,54432
2018-05-04T09:11:07.051Z,50592
2018-05-04T09:12:07.325Z,44992
2018-05-04T09:13:07.634Z,42336
2018-05-04T09:14:08.524Z,43456
2018-05-04T09:15:08.163Z,44960
2018-05-04T09:16:08.228Z,45600
2018-05-04T09:17:08.371Z,43104
2018-05-04T09:18:08.639Z,31840
2018-05-04T09:19:08.673Z,21184
2018-05-04T09:20:08.162Z,11936
2018-05-04T09:21:08.225Z,7148
2018-05-04T09:22:08.873Z,6740
2018-05-04T09:23:09.109Z,5956
2018-05-04T09:24:08.322Z,5888
2018-05-04T09:25:09.232Z,5804
2018-05-04T09:26:08.742Z,5820
2018-05-04T09:27:08.845Z,5484
2018-05-04T09:28:08.774Z,5508
2018-05-04T09:29:09.270Z,5256
2018-05-04T09:30:09.118Z,5328
2018-05-04T09:31:09.625Z,5464
2018-05-04T09:32:09.119Z,5568
2018-05-04T09:33:09.364Z,5324
2018-05-04T09:34:09.926Z,5296
2018-05-04T09:35:09.719Z,5216
2018-05-04T09:36:09.973Z,5488
2018-05-04T09:37:09.970Z,5416
2018-05-04T09:38:10.279Z,5384
2018-05-04T09:39:10.857Z,5676
2018-05-04T09:40:10.580Z,5956
2018-05-04T09:41:11.029Z,5832
2018-05-04T09:42:10.372Z,5956
2018-05-04T09:43:11.053Z,6508
2018-05-04T09:44:10.496Z,5344
2018-05-04T09:45:10.746Z,6436
2018-05-04T09:46:10.769Z,6700
2018-05-04T09:47:10.789Z,7140
2018-05-04T09:48:11.728Z,7200
2018-05-04T09:49:11.442Z,6128
2018-05-04T09:50:11.558Z,6124
2018-05-04T09:51:11.816Z,5348
2018-05-04T09:52:12.119Z,6796
2018-05-04T09:53:11.983Z,7004
2018-05-04T09:54:11.875Z,7060
2018-05-04T09:55:12.427Z,6916
2018-05-04T09:56:12.969Z,7180
2018-05-04T09:57:12.736Z,7160
2018-05-04T09:58:12.901Z,7064
2018-05-04T09:59:12.640Z,7188
2018-05-04T10:00:14.916Z,5376
2018-05-04T10:01:13.892Z,6800
2018-05-04T10:02:13.916Z,6660
2018-05-04T10:03:13.967Z,5336
2018-05-04T10:04:14.035Z,6332
2018-05-04T10:05:13.796Z,6664
2018-05-04T10:06:14.025Z,6572
2018-05-04T10:07:14.508Z,6348
2018-05-04T10:08:15.081Z,6012
2018-05-04T10:09:15.033Z,6184
2018-05-04T10:10:14.855Z,6308
2018-05-04T10:11:14.885Z,6400
2018-05-04T10:12:14.973Z,6260
2018-05-04T10:13:14.700Z,5988
2018-05-04T10:14:15.561Z,6036
2018-05-04T10:15:15.267Z,6020
2018-05-04T10:16:15.643Z,5660
2018-05-04T10:17:15.611Z,5760
2018-05-04T10:18:15.637Z,5632
2018-05-04T10:19:16.234Z,5824
2018-05-04T10:20:16.196Z,5520
2018-05-04T10:21:16.192Z,5100
2018-05-04T10:22:16.528Z,5420
2018-05-04T10:23:16.260Z,5372
2018-05-04T10:24:16.497Z,5408
2018-05-04T10:25:17.220Z,5412
2018-05-04T10:26:16.755Z,5516
2018-05-04T10:27:17.008Z,4584
2018-05-04T10:28:17.010Z,5476
2018-05-04T10:29:16.825Z,5528
2018-05-04T10:30:17.886Z,5504
2018-05-04T10:31:17.568Z,5428
2018-05-04T10:32:17.651Z,5384
2018-05-04T10:33:17.283Z,5532
2018-05-04T10:34:17.826Z,5488
2018-05-04T10:35:17.973Z,5464
2018-05-04T10:36:17.881Z,5328
2018-05-04T10:37:18.332Z,5268
2018-05-04T10:38:18.309Z,5092
2018-05-04T10:39:18.003Z,5492
2018-05-04T10:40:18.029Z,5276
2018-05-04T10:41:18.104Z,5092
2018-05-04T10:42:18.172Z,4792
2018-05-04T10:43:17.869Z,4404
2018-05-04T10:44:18.320Z,4344
2018-05-04T10:45:18.654Z,3596
2018-05-04T10:46:18.226Z,2876
2018-05-04T10:47:18.247Z,2516
2018-05-04T10:48:18.629Z,2348
2018-05-04T10:49:18.269Z,2260
2018-05-04T10:50:18.581Z,2160
2018-05-04T10:51:18.607Z,2048
2018-05-04T10:52:19.350Z,2000
2018-05-04T10:53:18.129Z,1976
2018-05-04T10:54:18.887Z,1940
2018-05-04T10:55:18.651Z,1908
2018-05-04T10:56:18.936Z,1888
2018-05-04T10:57:19.200Z,1852
2018-05-04T10:58:19.089Z,1832
2018-05-04T10:59:19.386Z,1832
2018-05-04T11:00:22.268Z,1788
2018-05-04T11:01:22.695Z,1776
2018-05-04T11:02:22.181Z,1736
2018-05-04T11:03:22.248Z,1728
2018-05-04T11:04:22.783Z,1704
2018-05-04T11:05:22.559Z,1724
2018-05-04T11:06:23.092Z,1668
2018-05-04T11:07:22.570Z,1652
2018-05-04T11:08:22.959Z,1612
2018-05-04T11:09:23.376Z,1644
2018-05-04T11:10:23.478Z,1588
2018-05-04T11:11:23.643Z,1596
2018-05-04T11:12:23.544Z,1568
2018-05-04T11:13:24.205Z,1596
2018-05-04T11:14:24.729Z,1552
2018-05-04T11:15:24.473Z,1544
2018-05-04T11:16:24.246Z,1524
2018-05-04T11:17:24.769Z,1524
2018-05-04T11:18:24.979Z,1516
2018-05-04T11:19:24.983Z,1492
2018-05-04T11:20:24.820Z,1468
2018-05-04T11:21:25.165Z,1456
2018-05-04T11:22:24.832Z,1448
2018-05-04T11:23:24.759Z,1432
2018-05-04T11:24:25.332Z,1424
2018-05-04T11:25:25.788Z,1412
2018-05-04T11:26:25.827Z,1396
2018-05-04T11:27:25.988Z,1396
2018-05-04T11:28:25.917Z,1376
2018-05-04T11:29:25.420Z,1372
2018-05-04T11:30:26.094Z,1344
2018-05-04T11:31:26.283Z,1344
2018-05-04T11:32:26.449Z,1324
2018-05-04T11:33:28.710Z,1300
2018-05-04T11:34:27.761Z,1236
2018-05-04T11:35:28.593Z,1192
2018-05-04T11:36:27.503Z,1140
2018-05-04T11:37:28.191Z,1168
2018-05-04T11:38:28.183Z,1176
2018-05-04T11:39:27.945Z,1164
2018-05-04T11:40:28.628Z,1120
2018-05-04T11:41:28.537Z,1156
2018-05-04T11:42:28.944Z,1124
2018-05-04T11:43:29.455Z,1112
2018-05-04T11:44:29.820Z,1116
2018-05-04T11:45:29.953Z,1108
2018-05-04T11:46:30.343Z,1108
2018-05-04T11:47:30.349Z,1092
2018-05-04T11:48:30.725Z,1092
2018-05-04T11:49:30.720Z,1108
2018-05-04T11:50:30.447Z,1100
2018-05-04T11:51:31.633Z,1116
2018-05-04T11:52:31.197Z,1088
2018-05-04T11:53:31.429Z,1112
2018-05-04T11:54:31.381Z,1108
2018-05-04T11:55:31.396Z,1076
2018-05-04T11:56:31.511Z,1080
2018-05-04T11:57:31.918Z,1080
2018-05-04T11:58:32.374Z,1096
2018-05-04T11:59:32.257Z,1080
2018-05-04T13:00:20.391Z,980
2018-05-04T13:01:17.502Z,980
2018-05-04T13:02:17.981Z,956
2018-05-04T13:03:18.245Z,956
2018-05-04T13:04:18.203Z,952
2018-05-04T13:05:18.945Z,936
2018-05-04T13:06:19.044Z,980
2018-05-04T13:07:19.051Z,972
2018-05-04T13:08:18.968Z,936
2018-05-04T13:09:19.694Z,932
2018-05-04T13:10:19.676Z,948
2018-05-04T13:11:19.761Z,936
2018-05-04T13:12:19.477Z,936
2018-05-04T13:13:19.788Z,932
2018-05-04T13:14:20.257Z,932
2018-05-04T13:15:20.181Z,940
2018-05-04T13:16:20.426Z,952
2018-05-04T13:17:20.812Z,932
2018-05-04T13:18:20.481Z,924
2018-05-04T13:19:20.891Z,920
2018-05-04T13:20:21.041Z,920
2018-05-04T13:21:21.719Z,928
2018-05-04T13:22:21.993Z,928
2018-05-04T13:23:21.809Z,924
2018-05-04T13:24:21.922Z,928
2018-05-04T13:25:21.778Z,912
2018-05-04T13:26:21.833Z,912
2018-05-04T13:27:22.269Z,952
2018-05-04T13:28:22.734Z,960
2018-05-04T13:29:22.719Z,980
2018-05-04T13:30:22.900Z,1008
2018-05-04T13:31:22.778Z,1008
2018-05-04T13:32:22.627Z,1016
2018-05-04T13:33:23.237Z,1008
2018-05-04T13:34:23.000Z,1000
2018-05-04T13:35:23.158Z,1020
2018-05-04T13:36:23.478Z,996
2018-05-04T13:37:23.804Z,984
2018-05-04T13:38:23.891Z,1008
2018-05-04T13:39:24.499Z,1024
2018-05-04T13:40:24.502Z,1020
2018-05-04T13:41:24.692Z,1044
2018-05-04T13:42:24.679Z,1052
2018-05-04T13:43:25.087Z,1040
2018-05-04T13:44:24.935Z,1076
2018-05-04T13:45:25.333Z,1152
2018-05-04T13:46:25.517Z,1164
2018-05-04T13:47:25.095Z,1216
2018-05-04T13:48:25.713Z,1228
2018-05-04T13:49:25.516Z,1208
2018-05-04T13:50:27.536Z,1224
2018-05-04T13:51:27.543Z,1280
2018-05-04T13:52:26.713Z,1300
2018-05-04T13:53:27.020Z,1312
2018-05-04T13:54:28.029Z,1292
2018-05-04T13:55:27.641Z,1296
2018-05-04T13:56:26.625Z,1296
2018-05-04T13:57:27.002Z,1288
2018-05-04T13:58:28.850Z,1292
2018-05-04T13:59:27.985Z,1280
2018-05-04T14:00:27.298Z,1252
2018-05-04T14:01:27.437Z,1292
2018-05-04T14:02:27.378Z,1304
2018-05-04T14:03:27.995Z,1284
2018-05-04T14:04:27.730Z,1272
2018-05-04T14:05:27.954Z,1256
2018-05-04T14:06:30.016Z,1272
2018-05-04T14:07:28.422Z,1244
2018-05-04T14:08:28.589Z,1244
2018-05-04T14:09:28.692Z,1244
2018-05-04T14:10:29.236Z,1236
2018-05-04T14:11:30.474Z,1224
2018-05-04T14:12:28.812Z,1244
2018-05-04T14:13:29.454Z,1236
2018-05-04T14:14:30.625Z,1268
2018-05-04T14:15:29.271Z,1312
2018-05-04T14:16:29.456Z,1312
2018-05-04T14:17:29.648Z,1320
2018-05-04T14:18:29.024Z,1332
2018-05-04T14:19:29.606Z,1308
2018-05-04T14:20:29.003Z,1304
2018-05-04T14:21:29.467Z,1272
2018-05-04T14:22:29.648Z,1300
2018-05-04T14:23:29.806Z,1272
2018-05-04T14:24:29.978Z,1252
2018-05-04T14:25:30.106Z,1312
2018-05-04T14:26:30.415Z,1328
2018-05-04T14:27:30.213Z,1324
2018-05-04T14:28:30.873Z,1308
2018-05-04T14:29:30.378Z,1356
2018-05-04T14:30:31.044Z,1340
2018-05-04T14:31:31.088Z,1380
2018-05-04T14:32:30.852Z,1380
2018-05-04T14:33:31.526Z,1344
2018-05-04T14:34:31.345Z,1340
2018-05-04T14:35:32.014Z,1280
2018-05-04T14:36:31.504Z,1268
2018-05-04T14:37:31.983Z,1284
2018-05-04T14:38:31.846Z,1240
2018-05-04T14:39:32.280Z,1216
2018-05-04T14:40:33.013Z,1180
2018-05-04T14:41:32.805Z,1164
2018-05-04T14:42:32.778Z,1072
2018-05-04T14:43:32.544Z,1088
2018-05-04T14:44:32.691Z,1028
2018-05-04T14:45:32.717Z,984
2018-05-04T14:46:33.407Z,984
2018-05-04T14:47:33.295Z,956
2018-05-04T14:48:33.193Z,924
2018-05-04T14:49:33.897Z,884
2018-05-04T14:50:35.319Z,864
2018-05-04T14:51:34.792Z,868
2018-05-04T14:52:34.324Z,892
2018-05-04T14:53:34.279Z,900
2018-05-04T14:54:34.784Z,884
2018-05-04T14:55:34.579Z,904
2018-05-04T14:56:35.015Z,900
2018-05-04T14:57:35.426Z,920
2018-05-04T14:58:35.677Z,896
2018-05-04T14:59:35.646Z,888
2018-05-04T15:00:37.876Z,884
2018-05-04T15:01:37.922Z,884
2018-05-04T15:02:35.684Z,884
2018-05-04T15:03:35.721Z,868
2018-05-04T15:04:35.505Z,896
2018-05-04T15:05:36.787Z,904
2018-05-04T15:06:36.340Z,888
2018-05-04T15:07:37.590Z,896
2018-05-04T15:08:36.931Z,884
2018-05-04T15:09:36.949Z,864
2018-05-04T15:10:36.654Z,860
2018-05-04T15:11:36.532Z,840
2018-05-04T15:12:36.712Z,828
2018-05-04T15:13:36.238Z,820
2018-05-04T15:14:36.436Z,780
2018-05-04T15:15:36.491Z,780
2018-05-04T15:16:36.375Z,788
2018-05-04T15:17:36.676Z,752
2018-05-04T15:18:37.182Z,764
2018-05-04T15:19:37.399Z,748
2018-05-04T15:20:37.222Z,732
2018-05-04T15:21:37.579Z,728
2018-05-04T15:22:38.775Z,712
2018-05-04T15:23:38.394Z,708
2018-05-04T15:24:38.570Z,700
2018-05-04T15:25:38.182Z,696
2018-05-04T15:26:38.575Z,704
2018-05-04T15:27:38.781Z,676
2018-05-04T15:28:38.717Z,672
2018-05-04T15:29:39.029Z,680
2018-05-04T15:30:39.789Z,660
2018-05-04T15:31:39.788Z,656
2018-05-04T15:32:40.265Z,656
2018-05-04T15:33:39.833Z,664
2018-05-04T15:34:40.409Z,648
2018-05-04T15:35:39.896Z,644
2018-05-04T15:36:40.173Z,656
2018-05-04T15:37:40.313Z,652
2018-05-04T15:38:40.812Z,648
2018-05-04T15:39:40.678Z,648
2018-05-04T15:40:41.211Z,648
2018-05-04T15:41:41.227Z,640
2018-05-04T15:42:40.911Z,640
2018-05-04T15:43:41.447Z,628
2018-05-04T15:44:41.571Z,628
2018-05-04T15:45:41.974Z,620
2018-05-04T15:46:42.361Z,632
2018-05-04T15:47:42.375Z,612
2018-05-04T15:48:42.529Z,624
2018-05-04T15:49:43.353Z,612
2018-05-04T15:50:43.310Z,624
2018-05-04T15:51:43.419Z,604
2018-05-04T15:52:43.096Z,604
2018-05-04T15:53:43.151Z,604
2018-05-04T15:54:43.790Z,604
2018-05-04T15:55:43.669Z,604
2018-05-04T15:56:44.104Z,604
2018-05-04T15:57:44.266Z,604
2018-05-04T15:58:44.659Z,600
2018-05-04T15:59:44.389Z,604
2018-05-04T16:00:47.091Z,596
2018-05-04T16:01:47.348Z,608
2018-05-04T16:02:44.519Z,588
2018-05-04T16:03:44.634Z,588
2018-05-04T16:04:45.068Z,600
2018-05-04T16:05:44.959Z,588
2018-05-04T16:06:45.240Z,588
2018-05-04T16:07:45.101Z,584
2018-05-04T16:08:45.154Z,588
2018-05-04T16:09:45.171Z,592
2018-05-04T16:10:45.473Z,584
2018-05-04T16:11:45.521Z,576
2018-05-04T16:12:45.793Z,592
2018-05-04T16:13:46.259Z,576
2018-05-04T16:14:46.343Z,588